CMA CGM Rhone — 9HA3778 — position and weather

sailwx.info

Track history (hours):
 
Tides and Currents Weather Stations Pressure Air Temp Water Temp Dewpoint Dewpoint Depression Visibility Wind Speed Wind Dir Waves Ship Positions

CMA CGM Rhone

Last reported at 2018-Jun-22 15:39 UTC. Time now 2018-Jun-24 05:15 UTC.
Position N 01°22' E 104°42'.

Length 300 m; draft 12.3 m.

Type: Ship (hazmat cat A). MMSI: 229989000.

Date/timePositionNaut miles runAvg speedWind from/ knotsBaromVisibWave heightAir tempDewpointWater temp
2018-Jun-22 15:39N 01°22' E 104°42'317.0
2018-Jun-22 15:27N 01°23' E 104°38'816.7
2018-Jun-22 14:57N 01°25' E 104°30'818.3
2018-Jun-22 14:30N 01°20' E 104°24'917.4
2018-Jun-22 14:00N 01°16' E 104°16'817.2
2018-Jun-22 13:30N 01°15' E 104°08'917.8
2018-Jun-22 13:00N 01°14' E 103°59'816.9
2018-Jun-22 12:30N 01°11' E 103°51'4 8.1
2018-Jun-22 12:00N 01°13' E 103°47'2 4.6
2018-Jun-22 11:28N 01°16' E 103°47'0 0.0
2018-Jun-22 10:59N 01°16' E 103°47'0 0.0
2018-Jun-22 10:28N 01°16' E 103°47'0 0.0
2018-Jun-22 09:53N 01°16' E 103°47'0 0.0
2018-Jun-22 09:25N 01°16' E 103°47'0 0.0
2018-Jun-22 08:59N 01°16' E 103°47'0 0.0
2018-Jun-22 08:29N 01°16' E 103°47'0 0.0
2018-Jun-22 07:56N 01°16' E 103°47'0 0.0
2018-Jun-22 07:29N 01°16' E 103°47'0 0.0
2018-Jun-22 06:53N 01°16' E 103°47'0 0.0
2018-Jun-22 06:28N 01°16' E 103°47'0 0.0
2018-Jun-22 05:59N 01°16' E 103°47'0 0.0
2018-Jun-22 05:25N 01°16' E 103°47'0 0.0
2018-Jun-22 04:59N 01°16' E 103°47'0 0.0
2018-Jun-22 04:30N 01°16' E 103°47'0 0.0
2018-Jun-22 04:01N 01°16' E 103°47'0 0.0
2018-Jun-22 03:27N 01°16' E 103°47'0 0.0
2018-Jun-22 02:58N 01°16' E 103°47'0 0.0
2018-Jun-22 02:25N 01°16' E 103°47'0 0.0
2018-Jun-22 02:01N 01°16' E 103°47'0 0.0
2018-Jun-22 01:28N 01°16' E 103°47'0 0.0
2018-Jun-22 01:01N 01°16' E 103°47'0 0.0
2018-Jun-22 00:30N 01°16' E 103°47'0 0.0
2018-Jun-21 23:57N 01°16' E 103°47'0 0.0
2018-Jun-21 23:30N 01°16' E 103°47'0 0.0
2018-Jun-21 22:58N 01°16' E 103°47'0 0.0
2018-Jun-21 22:30N 01°16' E 103°47'0 0.0
2018-Jun-21 22:01N 01°16' E 103°47'0 0.0
2018-Jun-21 21:30N 01°16' E 103°47'0 0.0
2018-Jun-21 21:00N 01°16' E 103°47'0 0.0
2018-Jun-21 20:30N 01°16' E 103°47'0 0.0
2018-Jun-21 19:59N 01°16' E 103°47'0 0.0
2018-Jun-21 19:29N 01°16' E 103°47'0 0.0
2018-Jun-21 18:59N 01°16' E 103°47'0 0.0
2018-Jun-21 18:30N 01°16' E 103°47'0 0.0
2018-Jun-21 17:57N 01°16' E 103°47'0 0.0
2018-Jun-21 17:30N 01°16' E 103°47'0 0.0
2018-Jun-21 17:00N 01°16' E 103°47'0 0.0
2018-Jun-21 16:29N 01°16' E 103°47'0 0.0
2018-Jun-21 15:59N 01°16' E 103°47'0 0.8
2018-Jun-21 15:31N 01°16' E 103°47'2 3.9
2018-Jun-21 15:00N 01°15' E 103°45'2 5.1
2018-Jun-21 14:30N 01°14' E 103°42'4 8.5
2018-Jun-21 14:01N 01°12' E 103°38'3 6.3
2018-Jun-21 13:30N 01°12' E 103°35'5 9.6
2018-Jun-21 13:01N 01°10' E 103°31'4 8.6
2018-Jun-21 12:30N 01°11' E 103°27'5 9.1
2018-Jun-21 12:00N 01°13' E 103°23'4 8.9
2018-Jun-21 11:30N 01°16' E 103°20'5 9.5
2018-Jun-21 10:59N 01°19' E 103°16'612.0
2018-Jun-21 10:30N 01°23' E 103°11'712.4
2018-Jun-21 09:56N 01°27' E 103°06'  
Track history (hours):
 
Tides and Currents Weather Stations Pressure Air Temp Water Temp Dewpoint Dewpoint Depression Visibility Wind Speed Wind Dir Waves Ship Positions

CMA CGM Rhone

Last reported at 2018-Jun-22 15:39 UTC. Time now 2018-Jun-24 05:15 UTC.
Position N 01°22' E 104°42'.

Length 300 m; draft 12.3 m.

Type: Ship (hazmat cat A). MMSI: 229989000.

Date/timePositionNaut miles runAvg speedWind from/ knotsBaromVisibWave heightAir tempDewpointWater temp
2018-Jun-22 15:39N 01°22' E 104°42'317.0
2018-Jun-22 15:27N 01°23' E 104°38'816.7
2018-Jun-22 14:57N 01°25' E 104°30'818.3
2018-Jun-22 14:30N 01°20' E 104°24'917.4
2018-Jun-22 14:00N 01°16' E 104°16'817.2
2018-Jun-22 13:30N 01°15' E 104°08'917.8
2018-Jun-22 13:00N 01°14' E 103°59'816.9
2018-Jun-22 12:30N 01°11' E 103°51'4 8.1
2018-Jun-22 12:00N 01°13' E 103°47'2 4.6
2018-Jun-22 11:28N 01°16' E 103°47'0 0.0
2018-Jun-22 10:59N 01°16' E 103°47'0 0.0
2018-Jun-22 10:28N 01°16' E 103°47'0 0.0
2018-Jun-22 09:53N 01°16' E 103°47'0 0.0
2018-Jun-22 09:25N 01°16' E 103°47'0 0.0
2018-Jun-22 08:59N 01°16' E 103°47'0 0.0
2018-Jun-22 08:29N 01°16' E 103°47'0 0.0
2018-Jun-22 07:56N 01°16' E 103°47'0 0.0
2018-Jun-22 07:29N 01°16' E 103°47'0 0.0
2018-Jun-22 06:53N 01°16' E 103°47'0 0.0
2018-Jun-22 06:28N 01°16' E 103°47'0 0.0
2018-Jun-22 05:59N 01°16' E 103°47'0 0.0
2018-Jun-22 05:25N 01°16' E 103°47'0 0.0
2018-Jun-22 04:59N 01°16' E 103°47'0 0.0
2018-Jun-22 04:30N 01°16' E 103°47'0 0.0
2018-Jun-22 04:01N 01°16' E 103°47'0 0.0
2018-Jun-22 03:27N 01°16' E 103°47'0 0.0
2018-Jun-22 02:58N 01°16' E 103°47'0 0.0
2018-Jun-22 02:25N 01°16' E 103°47'0 0.0
2018-Jun-22 02:01N 01°16' E 103°47'0 0.0
2018-Jun-22 01:28N 01°16' E 103°47'0 0.0
2018-Jun-22 01:01N 01°16' E 103°47'0 0.0
2018-Jun-22 00:30N 01°16' E 103°47'0 0.0
2018-Jun-21 23:57N 01°16' E 103°47'0 0.0
2018-Jun-21 23:30N 01°16' E 103°47'0 0.0
2018-Jun-21 22:58N 01°16' E 103°47'0 0.0
2018-Jun-21 22:30N 01°16' E 103°47'0 0.0
2018-Jun-21 22:01N 01°16' E 103°47'0 0.0
2018-Jun-21 21:30N 01°16' E 103°47'0 0.0
2018-Jun-21 21:00N 01°16' E 103°47'0 0.0
2018-Jun-21 20:30N 01°16' E 103°47'0 0.0
2018-Jun-21 19:59N 01°16' E 103°47'0 0.0
2018-Jun-21 19:29N 01°16' E 103°47'0 0.0
2018-Jun-21 18:59N 01°16' E 103°47'0 0.0
2018-Jun-21 18:30N 01°16' E 103°47'0 0.0
2018-Jun-21 17:57N 01°16' E 103°47'0 0.0
2018-Jun-21 17:30N 01°16' E 103°47'0 0.0
2018-Jun-21 17:00N 01°16' E 103°47'0 0.0
2018-Jun-21 16:29N 01°16' E 103°47'0 0.0
2018-Jun-21 15:59N 01°16' E 103°47'0 0.8
2018-Jun-21 15:31N 01°16' E 103°47'2 3.9
2018-Jun-21 15:00N 01°15' E 103°45'2 5.1
2018-Jun-21 14:30N 01°14' E 103°42'4 8.5
2018-Jun-21 14:01N 01°12' E 103°38'3 6.3
2018-Jun-21 13:30N 01°12' E 103°35'5 9.6
2018-Jun-21 13:01N 01°10' E 103°31'4 8.6
2018-Jun-21 12:30N 01°11' E 103°27'5 9.1
2018-Jun-21 12:00N 01°13' E 103°23'4 8.9
2018-Jun-21 11:30N 01°16' E 103°20'5 9.5
2018-Jun-21 10:59N 01°19' E 103°16'612.0
2018-Jun-21 10:30N 01°23' E 103°11'712.4
2018-Jun-21 09:56N 01°27' E 103°06'  

Dump ship's entire track history